sensor_id;sensor_type;location;lat;lon;timestamp;P1;durP1;ratioP1;P2;durP2;ratioP2
58954;SDS011;45815;52.334;5.024;2024-03-29T00:00:24;8.35;;;1.40;;
58954;SDS011;45815;52.334;5.024;2024-03-29T00:02:50;7.80;;;1.23;;
58954;SDS011;45815;52.334;5.024;2024-03-29T00:05:15;7.00;;;1.25;;
58954;SDS011;45815;52.334;5.024;2024-03-29T00:07:41;5.25;;;1.00;;
58954;SDS011;45815;52.334;5.024;2024-03-29T00:10:06;6.28;;;1.30;;
58954;SDS011;45815;52.334;5.024;2024-03-29T00:12:32;6.20;;;1.27;;
58954;SDS011;45815;52.334;5.024;2024-03-29T00:14:57;5.28;;;1.15;;
58954;SDS011;45815;52.334;5.024;2024-03-29T00:17:22;9.60;;;2.22;;
58954;SDS011;45815;52.334;5.024;2024-03-29T00:19:48;9.15;;;1.77;;
58954;SDS011;45815;52.334;5.024;2024-03-29T00:22:13;5.88;;;1.45;;
58954;SDS011;45815;52.334;5.024;2024-03-29T00:24:38;6.97;;;1.25;;
58954;SDS011;45815;52.334;5.024;2024-03-29T00:27:04;7.30;;;1.92;;
58954;SDS011;45815;52.334;5.024;2024-03-29T00:29:29;5.38;;;1.30;;
58954;SDS011;45815;52.334;5.024;2024-03-29T00:31:55;4.70;;;1.15;;
58954;SDS011;45815;52.334;5.024;2024-03-29T00:34:20;7.50;;;1.13;;
58954;SDS011;45815;52.334;5.024;2024-03-29T00:36:46;8.52;;;1.40;;
58954;SDS011;45815;52.334;5.024;2024-03-29T00:39:12;5.15;;;1.30;;
58954;SDS011;45815;52.334;5.024;2024-03-29T00:41:37;6.75;;;1.35;;
58954;SDS011;45815;52.334;5.024;2024-03-29T00:44:02;5.90;;;1.15;;
58954;SDS011;45815;52.334;5.024;2024-03-29T00:46:28;5.18;;;0.90;;
58954;SDS011;45815;52.334;5.024;2024-03-29T00:48:53;8.07;;;1.70;;
58954;SDS011;45815;52.334;5.024;2024-03-29T00:51:19;8.43;;;1.27;;
58954;SDS011;45815;52.334;5.024;2024-03-29T00:53:44;5.95;;;1.10;;
58954;SDS011;45815;52.334;5.024;2024-03-29T00:56:10;7.03;;;1.50;;
58954;SDS011;45815;52.334;5.024;2024-03-29T00:58:35;8.70;;;1.40;;
58954;SDS011;45815;52.334;5.024;2024-03-29T01:01:00;9.70;;;1.98;;
58954;SDS011;45815;52.334;5.024;2024-03-29T01:03:26;5.88;;;1.23;;
58954;SDS011;45815;52.334;5.024;2024-03-29T01:05:53;5.38;;;1.83;;
58954;SDS011;45815;52.334;5.024;2024-03-29T01:08:19;6.90;;;1.50;;
58954;SDS011;45815;52.334;5.024;2024-03-29T01:10:46;7.63;;;1.42;;
58954;SDS011;45815;52.334;5.024;2024-03-29T01:13:11;5.32;;;1.23;;
58954;SDS011;45815;52.334;5.024;2024-03-29T01:15:37;5.50;;;1.48;;
58954;SDS011;45815;52.334;5.024;2024-03-29T01:18:02;5.22;;;1.20;;
58954;SDS011;45815;52.334;5.024;2024-03-29T01:20:28;6.78;;;1.15;;
58954;SDS011;45815;52.334;5.024;2024-03-29T01:22:53;13.05;;;2.22;;
58954;SDS011;45815;52.334;5.024;2024-03-29T01:25:20;9.27;;;1.70;;
58954;SDS011;45815;52.334;5.024;2024-03-29T01:27:46;9.20;;;1.42;;
58954;SDS011;45815;52.334;5.024;2024-03-29T01:30:11;6.32;;;1.20;;
58954;SDS011;45815;52.334;5.024;2024-03-29T01:32:37;6.10;;;1.40;;
58954;SDS011;45815;52.334;5.024;2024-03-29T01:35:03;6.30;;;1.00;;
58954;SDS011;45815;52.334;5.024;2024-03-29T01:37:29;7.47;;;1.10;;
58954;SDS011;45815;52.334;5.024;2024-03-29T01:39:55;7.20;;;1.30;;
58954;SDS011;45815;52.334;5.024;2024-03-29T01:42:21;6.47;;;1.08;;
58954;SDS011;45815;52.334;5.024;2024-03-29T01:44:46;6.95;;;1.35;;
58954;SDS011;45815;52.334;5.024;2024-03-29T01:47:12;6.35;;;1.50;;
58954;SDS011;45815;52.334;5.024;2024-03-29T01:49:38;5.78;;;1.00;;
58954;SDS011;45815;52.334;5.024;2024-03-29T01:52:04;11.63;;;1.35;;
58954;SDS011;45815;52.334;5.024;2024-03-29T01:54:30;6.60;;;1.52;;
58954;SDS011;45815;52.334;5.024;2024-03-29T01:56:56;9.75;;;1.60;;
58954;SDS011;45815;52.334;5.024;2024-03-29T01:59:21;7.35;;;1.20;;
58954;SDS011;45815;52.334;5.024;2024-03-29T02:01:47;7.07;;;1.38;;
58954;SDS011;45815;52.334;5.024;2024-03-29T02:04:13;7.13;;;2.15;;
58954;SDS011;45815;52.334;5.024;2024-03-29T02:06:39;7.85;;;1.42;;
58954;SDS011;45815;52.334;5.024;2024-03-29T02:09:05;9.02;;;1.40;;
58954;SDS011;45815;52.334;5.024;2024-03-29T02:11:30;6.55;;;1.70;;
58954;SDS011;45815;52.334;5.024;2024-03-29T02:13:56;6.60;;;1.63;;
58954;SDS011;45815;52.334;5.024;2024-03-29T02:16:22;6.57;;;1.10;;
58954;SDS011;45815;52.334;5.024;2024-03-29T02:18:47;6.22;;;1.17;;
58954;SDS011;45815;52.334;5.024;2024-03-29T02:21:13;5.05;;;1.23;;
58954;SDS011;45815;52.334;5.024;2024-03-29T02:23:40;7.50;;;1.55;;
58954;SDS011;45815;52.334;5.024;2024-03-29T02:26:08;6.95;;;1.20;;
58954;SDS011;45815;52.334;5.024;2024-03-29T02:28:34;6.25;;;1.20;;
58954;SDS011;45815;52.334;5.024;2024-03-29T02:30:59;6.57;;;1.13;;
58954;SDS011;45815;52.334;5.024;2024-03-29T02:33:25;6.50;;;1.38;;
58954;SDS011;45815;52.334;5.024;2024-03-29T02:35:50;5.93;;;1.02;;
58954;SDS011;45815;52.334;5.024;2024-03-29T02:38:16;6.47;;;1.30;;
58954;SDS011;45815;52.334;5.024;2024-03-29T02:40:41;8.13;;;1.20;;
58954;SDS011;45815;52.334;5.024;2024-03-29T02:43:06;6.85;;;1.30;;
58954;SDS011;45815;52.334;5.024;2024-03-29T02:45:32;6.25;;;1.15;;
58954;SDS011;45815;52.334;5.024;2024-03-29T02:47:57;9.05;;;1.42;;
58954;SDS011;45815;52.334;5.024;2024-03-29T02:50:23;6.57;;;1.20;;
58954;SDS011;45815;52.334;5.024;2024-03-29T02:52:48;5.72;;;1.20;;
58954;SDS011;45815;52.334;5.024;2024-03-29T02:55:13;5.97;;;1.27;;
58954;SDS011;45815;52.334;5.024;2024-03-29T02:57:39;7.80;;;1.50;;
58954;SDS011;45815;52.334;5.024;2024-03-29T03:00:05;3.55;;;0.88;;
58954;SDS011;45815;52.334;5.024;2024-03-29T03:02:31;6.53;;;1.17;;
58954;SDS011;45815;52.334;5.024;2024-03-29T03:04:56;4.75;;;1.20;;
58954;SDS011;45815;52.334;5.024;2024-03-29T03:07:22;6.70;;;1.20;;
58954;SDS011;45815;52.334;5.024;2024-03-29T03:10:06;12.38;;;2.58;;
58954;SDS011;45815;52.334;5.024;2024-03-29T03:12:50;8.00;;;1.35;;
58954;SDS011;45815;52.334;5.024;2024-03-29T03:15:15;5.28;;;1.58;;
58954;SDS011;45815;52.334;5.024;2024-03-29T03:17:41;6.82;;;1.30;;
58954;SDS011;45815;52.334;5.024;2024-03-29T03:20:06;6.15;;;1.15;;
58954;SDS011;45815;52.334;5.024;2024-03-29T03:22:34;5.55;;;1.05;;
58954;SDS011;45815;52.334;5.024;2024-03-29T03:24:59;7.00;;;1.33;;
58954;SDS011;45815;52.334;5.024;2024-03-29T03:27:24;7.15;;;1.08;;
58954;SDS011;45815;52.334;5.024;2024-03-29T03:29:50;9.15;;;1.73;;
58954;SDS011;45815;52.334;5.024;2024-03-29T03:32:16;6.05;;;1.27;;
58954;SDS011;45815;52.334;5.024;2024-03-29T03:34:41;8.32;;;1.63;;
58954;SDS011;45815;52.334;5.024;2024-03-29T03:37:06;3.50;;;1.02;;
58954;SDS011;45815;52.334;5.024;2024-03-29T03:39:32;4.80;;;1.90;;
58954;SDS011;45815;52.334;5.024;2024-03-29T03:41:57;5.45;;;1.35;;
58954;SDS011;45815;52.334;5.024;2024-03-29T03:44:22;7.63;;;1.30;;
58954;SDS011;45815;52.334;5.024;2024-03-29T03:46:50;8.20;;;1.88;;
58954;SDS011;45815;52.334;5.024;2024-03-29T03:49:16;6.40;;;1.30;;
58954;SDS011;45815;52.334;5.024;2024-03-29T03:51:41;8.63;;;1.60;;
58954;SDS011;45815;52.334;5.024;2024-03-29T03:54:07;5.15;;;1.10;;
58954;SDS011;45815;52.334;5.024;2024-03-29T03:56:32;6.47;;;1.20;;
58954;SDS011;45815;52.334;5.024;2024-03-29T03:58:58;6.15;;;1.35;;
58954;SDS011;45815;52.334;5.024;2024-03-29T04:01:23;6.70;;;1.58;;
58954;SDS011;45815;52.334;5.024;2024-03-29T04:03:48;6.15;;;1.55;;
58954;SDS011;45815;52.334;5.024;2024-03-29T04:06:14;7.10;;;1.35;;
58954;SDS011;45815;52.334;5.024;2024-03-29T04:08:39;7.00;;;1.30;;
58954;SDS011;45815;52.334;5.024;2024-03-29T04:11:05;4.68;;;0.90;;
58954;SDS011;45815;52.334;5.024;2024-03-29T04:13:30;7.90;;;1.20;;
58954;SDS011;45815;52.334;5.024;2024-03-29T04:16:05;5.72;;;1.88;;
58954;SDS011;45815;52.334;5.024;2024-03-29T04:18:32;7.07;;;1.50;;
58954;SDS011;45815;52.334;5.024;2024-03-29T04:20:58;4.85;;;1.20;;
58954;SDS011;45815;52.334;5.024;2024-03-29T04:23:24;8.05;;;1.23;;
58954;SDS011;45815;52.334;5.024;2024-03-29T04:25:55;5.45;;;1.00;;
58954;SDS011;45815;52.334;5.024;2024-03-29T04:28:22;4.57;;;1.30;;
58954;SDS011;45815;52.334;5.024;2024-03-29T04:30:54;3.75;;;0.80;;
58954;SDS011;45815;52.334;5.024;2024-03-29T04:33:24;4.60;;;1.65;;
58954;SDS011;45815;52.334;5.024;2024-03-29T04:35:51;4.38;;;1.33;;
58954;SDS011;45815;52.334;5.024;2024-03-29T04:38:17;5.65;;;1.30;;
58954;SDS011;45815;52.334;5.024;2024-03-29T04:40:42;3.97;;;1.00;;
58954;SDS011;45815;52.334;5.024;2024-03-29T04:43:07;6.30;;;1.30;;
58954;SDS011;45815;52.334;5.024;2024-03-29T04:45:33;4.35;;;1.00;;
58954;SDS011;45815;52.334;5.024;2024-03-29T04:47:58;4.00;;;1.00;;
58954;SDS011;45815;52.334;5.024;2024-03-29T04:50:23;2.92;;;1.02;;
58954;SDS011;45815;52.334;5.024;2024-03-29T04:52:49;5.10;;;0.90;;
58954;SDS011;45815;52.334;5.024;2024-03-29T04:55:14;4.95;;;1.75;;
58954;SDS011;45815;52.334;5.024;2024-03-29T04:57:39;5.57;;;0.82;;
58954;SDS011;45815;52.334;5.024;2024-03-29T05:00:05;3.55;;;1.10;;
58954;SDS011;45815;52.334;5.024;2024-03-29T05:02:31;7.40;;;1.13;;
58954;SDS011;45815;52.334;5.024;2024-03-29T05:04:56;6.45;;;1.00;;
58954;SDS011;45815;52.334;5.024;2024-03-29T05:07:23;3.30;;;0.82;;
58954;SDS011;45815;52.334;5.024;2024-03-29T05:09:48;4.07;;;1.17;;
58954;SDS011;45815;52.334;5.024;2024-03-29T05:12:14;4.60;;;0.90;;
58954;SDS011;45815;52.334;5.024;2024-03-29T05:14:39;3.30;;;0.80;;
58954;SDS011;45815;52.334;5.024;2024-03-29T05:17:04;5.32;;;0.98;;
58954;SDS011;45815;52.334;5.024;2024-03-29T05:19:30;6.15;;;1.02;;
58954;SDS011;45815;52.334;5.024;2024-03-29T05:21:55;3.50;;;0.90;;
58954;SDS011;45815;52.334;5.024;2024-03-29T05:24:20;3.45;;;0.90;;
58954;SDS011;45815;52.334;5.024;2024-03-29T05:26:46;3.78;;;0.90;;
58954;SDS011;45815;52.334;5.024;2024-03-29T05:29:11;1.25;;;0.55;;
58954;SDS011;45815;52.334;5.024;2024-03-29T05:31:37;2.58;;;0.68;;
58954;SDS011;45815;52.334;5.024;2024-03-29T05:34:03;2.97;;;0.60;;
58954;SDS011;45815;52.334;5.024;2024-03-29T05:36:28;3.72;;;0.60;;
58954;SDS011;45815;52.334;5.024;2024-03-29T05:38:53;4.50;;;1.00;;
58954;SDS011;45815;52.334;5.024;2024-03-29T05:41:19;4.05;;;0.70;;
58954;SDS011;45815;52.334;5.024;2024-03-29T05:43:44;2.47;;;0.80;;
58954;SDS011;45815;52.334;5.024;2024-03-29T05:46:10;3.20;;;1.00;;
58954;SDS011;45815;52.334;5.024;2024-03-29T05:48:35;2.13;;;0.50;;
58954;SDS011;45815;52.334;5.024;2024-03-29T05:51:00;3.42;;;0.73;;
58954;SDS011;45815;52.334;5.024;2024-03-29T05:53:26;2.65;;;0.70;;
58954;SDS011;45815;52.334;5.024;2024-03-29T05:55:51;0.93;;;0.50;;
58954;SDS011;45815;52.334;5.024;2024-03-29T05:58:16;2.35;;;0.70;;
58954;SDS011;45815;52.334;5.024;2024-03-29T06:00:43;1.75;;;0.60;;
58954;SDS011;45815;52.334;5.024;2024-03-29T06:03:09;1.45;;;0.43;;
58954;SDS011;45815;52.334;5.024;2024-03-29T06:05:35;2.47;;;0.80;;
58954;SDS011;45815;52.334;5.024;2024-03-29T06:08:00;4.80;;;0.70;;
58954;SDS011;45815;52.334;5.024;2024-03-29T06:10:26;3.60;;;0.68;;
58954;SDS011;45815;52.334;5.024;2024-03-29T06:12:51;2.13;;;0.63;;
58954;SDS011;45815;52.334;5.024;2024-03-29T06:15:16;1.98;;;0.55;;
58954;SDS011;45815;52.334;5.024;2024-03-29T06:18:00;1.98;;;0.73;;
58954;SDS011;45815;52.334;5.024;2024-03-29T06:20:25;2.78;;;0.60;;
58954;SDS011;45815;52.334;5.024;2024-03-29T06:22:51;2.08;;;0.63;;
58954;SDS011;45815;52.334;5.024;2024-03-29T06:25:16;2.58;;;0.68;;
58954;SDS011;45815;52.334;5.024;2024-03-29T06:27:42;4.65;;;0.60;;
58954;SDS011;45815;52.334;5.024;2024-03-29T06:30:13;4.50;;;0.70;;
58954;SDS011;45815;52.334;5.024;2024-03-29T06:32:39;3.53;;;0.60;;
58954;SDS011;45815;52.334;5.024;2024-03-29T06:35:05;4.55;;;1.00;;
58954;SDS011;45815;52.334;5.024;2024-03-29T06:37:31;3.72;;;0.88;;
58954;SDS011;45815;52.334;5.024;2024-03-29T06:39:56;3.15;;;0.80;;
58954;SDS011;45815;52.334;5.024;2024-03-29T06:42:21;4.82;;;0.80;;
58954;SDS011;45815;52.334;5.024;2024-03-29T06:44:47;2.85;;;0.80;;
58954;SDS011;45815;52.334;5.024;2024-03-29T06:47:12;2.60;;;0.90;;
58954;SDS011;45815;52.334;5.024;2024-03-29T06:49:38;3.10;;;0.85;;
58954;SDS011;45815;52.334;5.024;2024-03-29T06:52:03;2.22;;;0.90;;
58954;SDS011;45815;52.334;5.024;2024-03-29T06:54:29;4.18;;;0.82;;
58954;SDS011;45815;52.334;5.024;2024-03-29T06:56:55;2.95;;;0.70;;
58954;SDS011;45815;52.334;5.024;2024-03-29T06:59:21;3.33;;;1.00;;
58954;SDS011;45815;52.334;5.024;2024-03-29T07:01:47;3.90;;;1.02;;
58954;SDS011;45815;52.334;5.024;2024-03-29T07:04:17;3.33;;;0.77;;
58954;SDS011;45815;52.334;5.024;2024-03-29T07:06:46;4.45;;;0.98;;
58954;SDS011;45815;52.334;5.024;2024-03-29T07:09:20;2.38;;;0.70;;
58954;SDS011;45815;52.334;5.024;2024-03-29T07:11:47;3.88;;;0.95;;
58954;SDS011;45815;52.334;5.024;2024-03-29T07:14:17;5.18;;;1.17;;
58954;SDS011;45815;52.334;5.024;2024-03-29T07:16:43;4.30;;;0.98;;
58954;SDS011;45815;52.334;5.024;2024-03-29T07:19:10;3.80;;;1.13;;
58954;SDS011;45815;52.334;5.024;2024-03-29T07:21:38;4.20;;;0.90;;
58954;SDS011;45815;52.334;5.024;2024-03-29T07:24:04;3.95;;;0.90;;
58954;SDS011;45815;52.334;5.024;2024-03-29T07:26:29;5.50;;;0.77;;
58954;SDS011;45815;52.334;5.024;2024-03-29T07:28:55;3.28;;;0.70;;
58954;SDS011;45815;52.334;5.024;2024-03-29T07:31:20;1.85;;;0.77;;
58954;SDS011;45815;52.334;5.024;2024-03-29T07:33:46;2.15;;;0.88;;
58954;SDS011;45815;52.334;5.024;2024-03-29T07:36:11;4.65;;;0.88;;
58954;SDS011;45815;52.334;5.024;2024-03-29T07:38:37;1.70;;;0.60;;
58954;SDS011;45815;52.334;5.024;2024-03-29T07:41:05;2.00;;;0.80;;
58954;SDS011;45815;52.334;5.024;2024-03-29T07:43:38;5.28;;;1.13;;
58954;SDS011;45815;52.334;5.024;2024-03-29T07:46:24;2.50;;;0.80;;
58954;SDS011;45815;52.334;5.024;2024-03-29T07:48:52;4.10;;;1.38;;
58954;SDS011;45815;52.334;5.024;2024-03-29T07:51:17;4.15;;;0.95;;
58954;SDS011;45815;52.334;5.024;2024-03-29T07:53:43;3.25;;;0.75;;
58954;SDS011;45815;52.334;5.024;2024-03-29T07:56:08;8.15;;;1.33;;
58954;SDS011;45815;52.334;5.024;2024-03-29T07:58:34;3.67;;;0.90;;
58954;SDS011;45815;52.334;5.024;2024-03-29T08:00:59;4.55;;;0.80;;
58954;SDS011;45815;52.334;5.024;2024-03-29T08:03:26;2.55;;;0.90;;
58954;SDS011;45815;52.334;5.024;2024-03-29T08:05:58;6.32;;;1.23;;
58954;SDS011;45815;52.334;5.024;2024-03-29T08:08:24;2.03;;;0.77;;
58954;SDS011;45815;52.334;5.024;2024-03-29T08:10:53;1.60;;;0.65;;
58954;SDS011;45815;52.334;5.024;2024-03-29T08:13:19;2.72;;;0.80;;
58954;SDS011;45815;52.334;5.024;2024-03-29T08:15:46;4.85;;;1.27;;
58954;SDS011;45815;52.334;5.024;2024-03-29T08:18:12;4.15;;;0.98;;
58954;SDS011;45815;52.334;5.024;2024-03-29T08:20:38;4.22;;;0.90;;
58954;SDS011;45815;52.334;5.024;2024-03-29T08:23:04;3.03;;;0.77;;
58954;SDS011;45815;52.334;5.024;2024-03-29T08:25:29;2.38;;;0.60;;
58954;SDS011;45815;52.334;5.024;2024-03-29T08:27:55;3.65;;;0.73;;
58954;SDS011;45815;52.334;5.024;2024-03-29T08:30:26;2.03;;;0.80;;
58954;SDS011;45815;52.334;5.024;2024-03-29T08:32:53;1.23;;;0.60;;
58954;SDS011;45815;52.334;5.024;2024-03-29T08:35:19;1.35;;;0.60;;
58954;SDS011;45815;52.334;5.024;2024-03-29T08:37:45;2.03;;;0.70;;
58954;SDS011;45815;52.334;5.024;2024-03-29T08:40:11;2.65;;;0.70;;
58954;SDS011;45815;52.334;5.024;2024-03-29T08:42:36;1.75;;;0.60;;
58954;SDS011;45815;52.334;5.024;2024-03-29T08:45:03;1.35;;;0.60;;
58954;SDS011;45815;52.334;5.024;2024-03-29T08:47:31;2.08;;;0.63;;
58954;SDS011;45815;52.334;5.024;2024-03-29T08:49:56;1.42;;;0.60;;
58954;SDS011;45815;52.334;5.024;2024-03-29T08:52:22;2.75;;;0.80;;
58954;SDS011;45815;52.334;5.024;2024-03-29T08:54:47;2.88;;;0.82;;
58954;SDS011;45815;52.334;5.024;2024-03-29T08:57:13;3.53;;;0.80;;
58954;SDS011;45815;52.334;5.024;2024-03-29T08:59:38;2.20;;;0.90;;
58954;SDS011;45815;52.334;5.024;2024-03-29T09:02:04;2.42;;;0.98;;
58954;SDS011;45815;52.334;5.024;2024-03-29T09:04:31;2.83;;;0.80;;
58954;SDS011;45815;52.334;5.024;2024-03-29T09:06:59;2.10;;;0.73;;
58954;SDS011;45815;52.334;5.024;2024-03-29T09:09:27;2.10;;;0.73;;
58954;SDS011;45815;52.334;5.024;2024-03-29T09:11:52;2.38;;;0.70;;
58954;SDS011;45815;52.334;5.024;2024-03-29T09:14:17;1.60;;;0.60;;
58954;SDS011;45815;52.334;5.024;2024-03-29T09:16:43;2.17;;;0.70;;
58954;SDS011;45815;52.334;5.024;2024-03-29T09:19:08;4.40;;;1.17;;
58954;SDS011;45815;52.334;5.024;2024-03-29T09:21:33;2.28;;;0.80;;
58954;SDS011;45815;52.334;5.024;2024-03-29T09:23:59;1.90;;;0.70;;
58954;SDS011;45815;52.334;5.024;2024-03-29T09:26:24;1.65;;;0.60;;
58954;SDS011;45815;52.334;5.024;2024-03-29T09:28:50;3.50;;;0.80;;
58954;SDS011;45815;52.334;5.024;2024-03-29T09:31:15;2.17;;;0.85;;
58954;SDS011;45815;52.334;5.024;2024-03-29T09:33:41;2.83;;;0.75;;
58954;SDS011;45815;52.334;5.024;2024-03-29T09:36:06;3.78;;;0.75;;
58954;SDS011;45815;52.334;5.024;2024-03-29T09:38:32;1.75;;;0.77;;
58954;SDS011;45815;52.334;5.024;2024-03-29T09:41:06;3.03;;;0.90;;
58954;SDS011;45815;52.334;5.024;2024-03-29T09:43:41;1.63;;;0.80;;
58954;SDS011;45815;52.334;5.024;2024-03-29T09:46:09;2.28;;;0.90;;
58954;SDS011;45815;52.334;5.024;2024-03-29T09:48:36;2.60;;;0.88;;
58954;SDS011;45815;52.334;5.024;2024-03-29T09:51:05;2.65;;;0.90;;
58954;SDS011;45815;52.334;5.024;2024-03-29T09:53:35;3.15;;;0.80;;
58954;SDS011;45815;52.334;5.024;2024-03-29T09:56:05;2.05;;;0.80;;
58954;SDS011;45815;52.334;5.024;2024-03-29T09:58:35;2.60;;;0.80;;
58954;SDS011;45815;52.334;5.024;2024-03-29T10:01:02;3.45;;;1.10;;
58954;SDS011;45815;52.334;5.024;2024-03-29T10:03:30;2.55;;;1.08;;
58954;SDS011;45815;52.334;5.024;2024-03-29T10:05:57;2.55;;;0.98;;
58954;SDS011;45815;52.334;5.024;2024-03-29T10:08:25;3.10;;;1.13;;
58954;SDS011;45815;52.334;5.024;2024-03-29T10:10:51;1.67;;;0.80;;
58954;SDS011;45815;52.334;5.024;2024-03-29T10:13:18;2.13;;;0.82;;
58954;SDS011;45815;52.334;5.024;2024-03-29T10:15:44;2.20;;;0.80;;
58954;SDS011;45815;52.334;5.024;2024-03-29T10:18:14;2.50;;;0.90;;
58954;SDS011;45815;52.334;5.024;2024-03-29T10:20:40;1.35;;;0.52;;
58954;SDS011;45815;52.334;5.024;2024-03-29T10:23:05;0.82;;;0.50;;
58954;SDS011;45815;52.334;5.024;2024-03-29T10:25:32;3.60;;;0.82;;
58954;SDS011;45815;52.334;5.024;2024-03-29T10:27:58;2.78;;;0.80;;
58954;SDS011;45815;52.334;5.024;2024-03-29T10:30:24;3.35;;;0.90;;
58954;SDS011;45815;52.334;5.024;2024-03-29T10:32:51;2.13;;;0.80;;
58954;SDS011;45815;52.334;5.024;2024-03-29T10:35:16;2.15;;;0.90;;
58954;SDS011;45815;52.334;5.024;2024-03-29T10:37:42;3.30;;;0.93;;
58954;SDS011;45815;52.334;5.024;2024-03-29T10:40:09;3.65;;;1.10;;
58954;SDS011;45815;52.334;5.024;2024-03-29T10:42:38;3.67;;;1.10;;
58954;SDS011;45815;52.334;5.024;2024-03-29T10:45:06;6.28;;;1.30;;
58954;SDS011;45815;52.334;5.024;2024-03-29T10:47:32;4.85;;;1.70;;
58954;SDS011;45815;52.334;5.024;2024-03-29T10:49:58;4.05;;;1.83;;
58954;SDS011;45815;52.334;5.024;2024-03-29T10:52:25;4.07;;;1.73;;
58954;SDS011;45815;52.334;5.024;2024-03-29T10:54:54;4.30;;;1.63;;
58954;SDS011;45815;52.334;5.024;2024-03-29T10:57:22;3.08;;;1.33;;
58954;SDS011;45815;52.334;5.024;2024-03-29T10:59:54;3.20;;;1.35;;
58954;SDS011;45815;52.334;5.024;2024-03-29T11:02:31;3.33;;;1.27;;
58954;SDS011;45815;52.334;5.024;2024-03-29T11:04:59;2.50;;;1.20;;
58954;SDS011;45815;52.334;5.024;2024-03-29T11:07:31;3.67;;;1.33;;
58954;SDS011;45815;52.334;5.024;2024-03-29T11:09:59;5.53;;;1.50;;
58954;SDS011;45815;52.334;5.024;2024-03-29T11:12:27;4.40;;;1.42;;
58954;SDS011;45815;52.334;5.024;2024-03-29T11:15:04;3.83;;;1.42;;
58954;SDS011;45815;52.334;5.024;2024-03-29T11:17:35;4.10;;;1.77;;
58954;SDS011;45815;52.334;5.024;2024-03-29T11:20:02;5.20;;;2.28;;
58954;SDS011;45815;52.334;5.024;2024-03-29T11:22:29;4.78;;;2.65;;
58954;SDS011;45815;52.334;5.024;2024-03-29T11:24:55;6.78;;;3.38;;
58954;SDS011;45815;52.334;5.024;2024-03-29T11:27:24;4.97;;;3.30;;
58954;SDS011;45815;52.334;5.024;2024-03-29T11:29:49;6.32;;;3.20;;
58954;SDS011;45815;52.334;5.024;2024-03-29T11:32:33;5.97;;;3.45;;
58954;SDS011;45815;52.334;5.024;2024-03-29T11:35:03;6.20;;;3.85;;
58954;SDS011;45815;52.334;5.024;2024-03-29T11:37:30;4.65;;;2.50;;
58954;SDS011;45815;52.334;5.024;2024-03-29T11:39:58;4.68;;;2.50;;
58954;SDS011;45815;52.334;5.024;2024-03-29T11:45:25;6.60;;;2.47;;
58954;SDS011;45815;52.334;5.024;2024-03-29T11:47:54;5.45;;;2.13;;
58954;SDS011;45815;52.334;5.024;2024-03-29T11:50:20;4.63;;;2.17;;
58954;SDS011;45815;52.334;5.024;2024-03-29T11:52:45;7.03;;;2.47;;
58954;SDS011;45815;52.334;5.024;2024-03-29T11:55:11;3.90;;;2.10;;
58954;SDS011;45815;52.334;5.024;2024-03-29T11:57:36;4.53;;;2.08;;
58954;SDS011;45815;52.334;5.024;2024-03-29T12:00:06;5.03;;;2.15;;
58954;SDS011;45815;52.334;5.024;2024-03-29T12:02:32;6.82;;;2.20;;
58954;SDS011;45815;52.334;5.024;2024-03-29T12:04:57;4.93;;;1.90;;
58954;SDS011;45815;52.334;5.024;2024-03-29T12:07:23;4.60;;;2.45;;
58954;SDS011;45815;52.334;5.024;2024-03-29T12:09:48;6.40;;;2.65;;
58954;SDS011;45815;52.334;5.024;2024-03-29T12:12:14;4.50;;;2.25;;
58954;SDS011;45815;52.334;5.024;2024-03-29T12:14:42;7.03;;;2.10;;
58954;SDS011;45815;52.334;5.024;2024-03-29T12:17:09;5.40;;;2.22;;
58954;SDS011;45815;52.334;5.024;2024-03-29T12:19:36;5.18;;;1.92;;
58954;SDS011;45815;52.334;5.024;2024-03-29T12:22:04;5.80;;;2.20;;
58954;SDS011;45815;52.334;5.024;2024-03-29T12:24:29;3.85;;;1.77;;
58954;SDS011;45815;52.334;5.024;2024-03-29T12:26:55;5.05;;;1.60;;
58954;SDS011;45815;52.334;5.024;2024-03-29T12:29:20;4.10;;;1.88;;
58954;SDS011;45815;52.334;5.024;2024-03-29T12:31:55;6.20;;;1.92;;
58954;SDS011;45815;52.334;5.024;2024-03-29T12:34:22;4.32;;;2.20;;
58954;SDS011;45815;52.334;5.024;2024-03-29T12:36:47;5.22;;;2.05;;
58954;SDS011;45815;52.334;5.024;2024-03-29T12:39:13;5.82;;;2.53;;
58954;SDS011;45815;52.334;5.024;2024-03-29T12:41:38;5.35;;;2.20;;
58954;SDS011;45815;52.334;5.024;2024-03-29T12:44:03;4.38;;;2.13;;
58954;SDS011;45815;52.334;5.024;2024-03-29T12:46:29;4.63;;;1.77;;
58954;SDS011;45815;52.334;5.024;2024-03-29T12:48:58;7.82;;;2.10;;
58954;SDS011;45815;52.334;5.024;2024-03-29T12:51:24;4.97;;;2.42;;
58954;SDS011;45815;52.334;5.024;2024-03-29T12:53:50;4.50;;;1.75;;
58954;SDS011;45815;52.334;5.024;2024-03-29T12:56:15;4.43;;;1.60;;
58954;SDS011;45815;52.334;5.024;2024-03-29T12:58:41;4.07;;;1.70;;
58954;SDS011;45815;52.334;5.024;2024-03-29T13:01:06;3.85;;;1.77;;
58954;SDS011;45815;52.334;5.024;2024-03-29T13:03:32;5.55;;;1.65;;
58954;SDS011;45815;52.334;5.024;2024-03-29T13:05:57;3.85;;;1.67;;
58954;SDS011;45815;52.334;5.024;2024-03-29T13:08:22;4.70;;;1.35;;
58954;SDS011;45815;52.334;5.024;2024-03-29T13:10:48;3.13;;;1.33;;
58954;SDS011;45815;52.334;5.024;2024-03-29T13:13:13;5.57;;;1.67;;
58954;SDS011;45815;52.334;5.024;2024-03-29T13:15:39;3.00;;;1.52;;
58954;SDS011;45815;52.334;5.024;2024-03-29T13:18:06;3.65;;;1.50;;
58954;SDS011;45815;52.334;5.024;2024-03-29T13:20:34;3.92;;;1.40;;
58954;SDS011;45815;52.334;5.024;2024-03-29T13:23:05;3.40;;;1.35;;
58954;SDS011;45815;52.334;5.024;2024-03-29T13:25:31;4.35;;;1.50;;
58954;SDS011;45815;52.334;5.024;2024-03-29T13:27:57;3.97;;;1.30;;
58954;SDS011;45815;52.334;5.024;2024-03-29T13:30:23;4.18;;;1.25;;
58954;SDS011;45815;52.334;5.024;2024-03-29T13:32:50;4.25;;;1.38;;
58954;SDS011;45815;52.334;5.024;2024-03-29T13:35:16;3.30;;;1.48;;
58954;SDS011;45815;52.334;5.024;2024-03-29T13:37:44;3.20;;;1.60;;
58954;SDS011;45815;52.334;5.024;2024-03-29T13:40:13;4.57;;;1.40;;
58954;SDS011;45815;52.334;5.024;2024-03-29T13:42:40;3.28;;;1.33;;
58954;SDS011;45815;52.334;5.024;2024-03-29T13:45:06;3.17;;;1.45;;
58954;SDS011;45815;52.334;5.024;2024-03-29T13:47:33;4.68;;;1.58;;
58954;SDS011;45815;52.334;5.024;2024-03-29T13:49:59;4.00;;;1.63;;
58954;SDS011;45815;52.334;5.024;2024-03-29T13:52:24;3.70;;;1.83;;
58954;SDS011;45815;52.334;5.024;2024-03-29T13:54:52;4.53;;;1.80;;
58954;SDS011;45815;52.334;5.024;2024-03-29T13:57:17;4.18;;;1.83;;
58954;SDS011;45815;52.334;5.024;2024-03-29T13:59:45;6.35;;;1.92;;
58954;SDS011;45815;52.334;5.024;2024-03-29T14:02:12;4.00;;;1.80;;
58954;SDS011;45815;52.334;5.024;2024-03-29T14:04:41;6.13;;;2.03;;
58954;SDS011;45815;52.334;5.024;2024-03-29T14:07:09;5.30;;;2.08;;
58954;SDS011;45815;52.334;5.024;2024-03-29T14:09:42;6.57;;;2.80;;
58954;SDS011;45815;52.334;5.024;2024-03-29T14:12:08;4.88;;;2.42;;
58954;SDS011;45815;52.334;5.024;2024-03-29T14:14:34;4.57;;;1.90;;
58954;SDS011;45815;52.334;5.024;2024-03-29T14:17:00;5.07;;;2.30;;
58954;SDS011;45815;52.334;5.024;2024-03-29T14:19:31;4.32;;;1.90;;
58954;SDS011;45815;52.334;5.024;2024-03-29T14:21:58;4.57;;;2.10;;
58954;SDS011;45815;52.334;5.024;2024-03-29T14:24:24;6.00;;;1.83;;
58954;SDS011;45815;52.334;5.024;2024-03-29T14:26:50;5.53;;;2.05;;
58954;SDS011;45815;52.334;5.024;2024-03-29T14:29:19;5.82;;;1.80;;
58954;SDS011;45815;52.334;5.024;2024-03-29T14:31:49;4.93;;;2.00;;
58954;SDS011;45815;52.334;5.024;2024-03-29T14:34:15;7.10;;;2.22;;
58954;SDS011;45815;52.334;5.024;2024-03-29T14:36:43;6.20;;;1.45;;
58954;SDS011;45815;52.334;5.024;2024-03-29T14:39:09;6.10;;;1.60;;
58954;SDS011;45815;52.334;5.024;2024-03-29T14:41:38;4.40;;;1.80;;
58954;SDS011;45815;52.334;5.024;2024-03-29T14:44:04;6.25;;;1.55;;
58954;SDS011;45815;52.334;5.024;2024-03-29T14:46:31;5.10;;;1.80;;